sensor_id;sensor_type;location;lat;lon;timestamp;pressure;altitude;pressure_sealevel;temperature;humidity
44313;BME280;38833;51.142;-0.974;2022-07-23T00:02:14;100410.14;;;27.17;36.04
44313;BME280;38833;51.142;-0.974;2022-07-23T00:04:47;100412.95;;;27.16;35.97
44313;BME280;38833;51.142;-0.974;2022-07-23T00:07:20;100416.63;;;27.12;35.97
44313;BME280;38833;51.142;-0.974;2022-07-23T00:09:54;100416.55;;;27.36;35.91
44313;BME280;38833;51.142;-0.974;2022-07-23T00:12:27;100414.58;;;27.05;35.91
44313;BME280;38833;51.142;-0.974;2022-07-23T00:15:03;100415.21;;;27.02;35.90
44313;BME280;38833;51.142;-0.974;2022-07-23T00:17:37;100412.70;;;27.05;35.78
44313;BME280;38833;51.142;-0.974;2022-07-23T00:20:11;100407.30;;;27.54;35.81
44313;BME280;38833;51.142;-0.974;2022-07-23T00:22:46;100401.46;;;27.32;35.74
44313;BME280;38833;51.142;-0.974;2022-07-23T00:25:20;100403.08;;;27.00;35.81
44313;BME280;38833;51.142;-0.974;2022-07-23T00:27:53;100407.23;;;27.04;35.70
44313;BME280;38833;51.142;-0.974;2022-07-23T00:30:27;100408.74;;;27.01;35.71
44313;BME280;38833;51.142;-0.974;2022-07-23T00:33:02;100409.75;;;27.00;35.63
44313;BME280;38833;51.142;-0.974;2022-07-23T00:35:39;100406.03;;;26.94;35.71
44313;BME280;38833;51.142;-0.974;2022-07-23T00:38:13;100400.50;;;27.17;35.70
44313;BME280;38833;51.142;-0.974;2022-07-23T00:40:46;100391.00;;;26.92;35.63
44313;BME280;38833;51.142;-0.974;2022-07-23T00:43:20;100390.23;;;26.84;35.71
44313;BME280;38833;51.142;-0.974;2022-07-23T00:45:53;100389.56;;;27.12;35.66
44313;BME280;38833;51.142;-0.974;2022-07-23T00:48:26;100389.46;;;26.91;35.54
44313;BME280;38833;51.142;-0.974;2022-07-23T00:51:00;100394.91;;;27.10;35.64
44313;BME280;38833;51.142;-0.974;2022-07-23T00:53:34;100393.89;;;27.08;35.67
44313;BME280;38833;51.142;-0.974;2022-07-23T00:56:08;100393.56;;;27.20;35.76
44313;BME280;38833;51.142;-0.974;2022-07-23T00:58:42;100394.93;;;26.99;35.75
44313;BME280;38833;51.142;-0.974;2022-07-23T01:01:15;100397.95;;;26.97;35.72
44313;BME280;38833;51.142;-0.974;2022-07-23T01:03:49;100400.92;;;26.63;35.79
44313;BME280;38833;51.142;-0.974;2022-07-23T01:06:22;100401.71;;;26.59;35.78
44313;BME280;38833;51.142;-0.974;2022-07-23T01:08:55;100404.62;;;26.92;35.72
44313;BME280;38833;51.142;-0.974;2022-07-23T01:11:29;100408.53;;;26.93;35.70
44313;BME280;38833;51.142;-0.974;2022-07-23T01:14:12;100413.39;;;27.01;35.54
44313;BME280;38833;51.142;-0.974;2022-07-23T01:16:47;100411.22;;;27.13;35.69
44313;BME280;38833;51.142;-0.974;2022-07-23T01:19:21;100404.67;;;27.14;35.62
44313;BME280;38833;51.142;-0.974;2022-07-23T01:21:57;100402.40;;;27.12;35.63
44313;BME280;38833;51.142;-0.974;2022-07-23T01:24:31;100397.41;;;27.15;35.59
44313;BME280;38833;51.142;-0.974;2022-07-23T01:27:04;100395.60;;;26.67;35.52
44313;BME280;38833;51.142;-0.974;2022-07-23T01:29:38;100397.23;;;27.21;35.44
44313;BME280;38833;51.142;-0.974;2022-07-23T01:32:11;100400.45;;;26.65;35.52
44313;BME280;38833;51.142;-0.974;2022-07-23T01:34:44;100403.00;;;27.10;35.61
44313;BME280;38833;51.142;-0.974;2022-07-23T01:37:18;100402.65;;;26.61;35.54
44313;BME280;38833;51.142;-0.974;2022-07-23T01:39:51;100403.83;;;26.59;35.56
44313;BME280;38833;51.142;-0.974;2022-07-23T01:42:25;100404.87;;;27.18;35.40
44313;BME280;38833;51.142;-0.974;2022-07-23T01:44:58;100403.58;;;27.13;35.46
44313;BME280;38833;51.142;-0.974;2022-07-23T01:47:31;100400.01;;;27.14;35.46
44313;BME280;38833;51.142;-0.974;2022-07-23T01:50:06;100398.74;;;26.68;35.39
44313;BME280;38833;51.142;-0.974;2022-07-23T01:52:39;100397.29;;;27.15;35.43
44313;BME280;38833;51.142;-0.974;2022-07-23T01:55:12;100397.29;;;26.68;35.39
44313;BME280;38833;51.142;-0.974;2022-07-23T01:57:46;100395.49;;;27.09;35.48
44313;BME280;38833;51.142;-0.974;2022-07-23T02:03:03;100398.49;;;26.87;35.46
44313;BME280;38833;51.142;-0.974;2022-07-23T02:05:36;100400.00;;;26.87;35.08
44313;BME280;38833;51.142;-0.974;2022-07-23T02:08:09;100395.94;;;26.87;34.74
44313;BME280;38833;51.142;-0.974;2022-07-23T02:10:43;100392.43;;;27.25;34.47
44313;BME280;38833;51.142;-0.974;2022-07-23T02:13:17;100392.96;;;27.08;34.34
44313;BME280;38833;51.142;-0.974;2022-07-23T02:15:50;100393.28;;;27.16;34.21
44313;BME280;38833;51.142;-0.974;2022-07-23T02:18:24;100392.93;;;27.16;34.22
44313;BME280;38833;51.142;-0.974;2022-07-23T02:20:57;100397.02;;;27.19;34.15
44313;BME280;38833;51.142;-0.974;2022-07-23T02:23:30;100395.06;;;27.17;34.16
44313;BME280;38833;51.142;-0.974;2022-07-23T02:26:04;100396.13;;;27.43;34.12
44313;BME280;38833;51.142;-0.974;2022-07-23T02:28:37;100395.75;;;27.15;34.17
44313;BME280;38833;51.142;-0.974;2022-07-23T02:31:10;100396.14;;;27.14;34.13
44313;BME280;38833;51.142;-0.974;2022-07-23T02:33:43;100396.55;;;27.39;34.07
44313;BME280;38833;51.142;-0.974;2022-07-23T02:36:17;100395.10;;;27.37;34.08
44313;BME280;38833;51.142;-0.974;2022-07-23T02:38:50;100395.50;;;27.13;34.14
44313;BME280;38833;51.142;-0.974;2022-07-23T02:41:23;100392.94;;;27.09;34.15
44313;BME280;38833;51.142;-0.974;2022-07-23T02:43:57;100392.04;;;27.36;34.04
44313;BME280;38833;51.142;-0.974;2022-07-23T02:46:30;100393.70;;;27.14;34.03
44313;BME280;38833;51.142;-0.974;2022-07-23T02:49:03;100394.30;;;27.29;34.06
44313;BME280;38833;51.142;-0.974;2022-07-23T02:51:36;100395.03;;;27.09;34.05
44313;BME280;38833;51.142;-0.974;2022-07-23T02:54:10;100397.97;;;27.29;34.06
44313;BME280;38833;51.142;-0.974;2022-07-23T02:56:43;100398.91;;;27.30;34.01
44313;BME280;38833;51.142;-0.974;2022-07-23T02:59:17;100400.63;;;27.26;34.03
44313;BME280;38833;51.142;-0.974;2022-07-23T03:01:50;100402.35;;;27.30;33.97
44313;BME280;38833;51.142;-0.974;2022-07-23T03:04:24;100398.90;;;27.35;34.20
44313;BME280;38833;51.142;-0.974;2022-07-23T03:06:57;100399.82;;;26.78;34.62
44313;BME280;38833;51.142;-0.974;2022-07-23T03:09:30;100397.16;;;26.89;34.85
44313;BME280;38833;51.142;-0.974;2022-07-23T03:12:04;100398.21;;;26.79;34.96
44313;BME280;38833;51.142;-0.974;2022-07-23T03:14:37;100397.79;;;26.49;34.99
44313;BME280;38833;51.142;-0.974;2022-07-23T03:17:10;100398.90;;;26.94;35.06
44313;BME280;38833;51.142;-0.974;2022-07-23T03:19:43;100398.72;;;26.37;35.12
44313;BME280;38833;51.142;-0.974;2022-07-23T03:22:17;100397.94;;;26.84;35.14
44313;BME280;38833;51.142;-0.974;2022-07-23T03:24:50;100397.10;;;26.76;35.24
44313;BME280;38833;51.142;-0.974;2022-07-23T03:27:24;100396.88;;;26.73;35.26
44313;BME280;38833;51.142;-0.974;2022-07-23T03:29:59;100398.32;;;26.72;35.26
44313;BME280;38833;51.142;-0.974;2022-07-23T03:32:32;100398.20;;;26.68;35.30
44313;BME280;38833;51.142;-0.974;2022-07-23T03:35:06;100398.24;;;26.66;35.30
44313;BME280;38833;51.142;-0.974;2022-07-23T03:37:40;100396.20;;;26.67;35.27
44313;BME280;38833;51.142;-0.974;2022-07-23T03:40:13;100395.06;;;26.66;35.23
44313;BME280;38833;51.142;-0.974;2022-07-23T03:42:46;100397.94;;;26.69;35.21
44313;BME280;38833;51.142;-0.974;2022-07-23T03:45:19;100397.59;;;26.40;35.27
44313;BME280;38833;51.142;-0.974;2022-07-23T03:47:53;100395.61;;;26.60;35.27
44313;BME280;38833;51.142;-0.974;2022-07-23T03:50:26;100395.81;;;26.60;35.29
44313;BME280;38833;51.142;-0.974;2022-07-23T03:52:59;100397.91;;;26.61;35.26
44313;BME280;38833;51.142;-0.974;2022-07-23T03:55:33;100399.59;;;26.62;35.19
44313;BME280;38833;51.142;-0.974;2022-07-23T03:58:06;100400.46;;;26.60;35.23
44313;BME280;38833;51.142;-0.974;2022-07-23T04:00:39;100403.02;;;26.39;35.19
44313;BME280;38833;51.142;-0.974;2022-07-23T04:03:12;100400.40;;;26.64;35.15
44313;BME280;38833;51.142;-0.974;2022-07-23T04:05:46;100398.12;;;26.61;35.16
44313;BME280;38833;51.142;-0.974;2022-07-23T04:08:19;100399.74;;;26.63;35.11
44313;BME280;38833;51.142;-0.974;2022-07-23T04:10:53;100401.39;;;26.69;35.01
44313;BME280;38833;51.142;-0.974;2022-07-23T04:13:26;100401.85;;;26.69;35.02
44313;BME280;38833;51.142;-0.974;2022-07-23T04:16:00;100400.06;;;26.73;34.94
44313;BME280;38833;51.142;-0.974;2022-07-23T04:18:33;100402.86;;;26.72;34.90
44313;BME280;38833;51.142;-0.974;2022-07-23T04:21:06;100405.44;;;26.51;34.80
44313;BME280;38833;51.142;-0.974;2022-07-23T04:23:40;100405.78;;;26.50;34.82
44313;BME280;38833;51.142;-0.974;2022-07-23T04:26:13;100405.37;;;26.70;34.83
44313;BME280;38833;51.142;-0.974;2022-07-23T04:28:46;100405.42;;;26.49;34.82
44313;BME280;38833;51.142;-0.974;2022-07-23T04:31:19;100411.42;;;26.51;34.77
44313;BME280;38833;51.142;-0.974;2022-07-23T04:33:53;100417.82;;;26.72;34.71
44313;BME280;38833;51.142;-0.974;2022-07-23T04:36:26;100418.08;;;26.18;34.75
44313;BME280;38833;51.142;-0.974;2022-07-23T04:38:59;100414.23;;;26.68;34.79
44313;BME280;38833;51.142;-0.974;2022-07-23T04:41:32;100413.72;;;26.70;34.71
44313;BME280;38833;51.142;-0.974;2022-07-23T04:44:06;100409.78;;;26.64;34.73
44313;BME280;38833;51.142;-0.974;2022-07-23T04:46:39;100410.34;;;26.64;34.73
44313;BME280;38833;51.142;-0.974;2022-07-23T04:49:13;100411.14;;;26.59;34.78
44313;BME280;38833;51.142;-0.974;2022-07-23T04:51:46;100408.63;;;26.55;34.85
44313;BME280;38833;51.142;-0.974;2022-07-23T04:54:19;100410.91;;;26.54;34.88
44313;BME280;38833;51.142;-0.974;2022-07-23T04:56:52;100412.41;;;26.53;34.76
44313;BME280;38833;51.142;-0.974;2022-07-23T04:59:26;100410.72;;;26.42;34.92
44313;BME280;38833;51.142;-0.974;2022-07-23T05:01:59;100412.29;;;26.40;34.96
44313;BME280;38833;51.142;-0.974;2022-07-23T05:04:32;100414.30;;;26.41;34.90
44313;BME280;38833;51.142;-0.974;2022-07-23T05:07:06;100415.95;;;26.36;34.98
44313;BME280;38833;51.142;-0.974;2022-07-23T05:09:39;100418.87;;;26.28;35.05
44313;BME280;38833;51.142;-0.974;2022-07-23T05:12:12;100423.02;;;26.09;35.04
44313;BME280;38833;51.142;-0.974;2022-07-23T05:14:46;100419.14;;;26.29;35.01
44313;BME280;38833;51.142;-0.974;2022-07-23T05:17:19;100415.09;;;26.25;35.00
44313;BME280;38833;51.142;-0.974;2022-07-23T05:19:52;100411.00;;;26.49;34.99
44313;BME280;38833;51.142;-0.974;2022-07-23T05:22:26;100412.33;;;26.27;34.95
44313;BME280;38833;51.142;-0.974;2022-07-23T05:24:59;100408.64;;;26.26;34.94
44313;BME280;38833;51.142;-0.974;2022-07-23T05:27:32;100411.99;;;26.28;34.92
44313;BME280;38833;51.142;-0.974;2022-07-23T05:30:07;100417.33;;;26.26;34.93
44313;BME280;38833;51.142;-0.974;2022-07-23T05:32:40;100416.38;;;26.28;34.89
44313;BME280;38833;51.142;-0.974;2022-07-23T05:35:13;100417.86;;;26.24;34.92
44313;BME280;38833;51.142;-0.974;2022-07-23T05:37:47;100413.63;;;26.29;34.86
44313;BME280;38833;51.142;-0.974;2022-07-23T05:40:20;100411.53;;;26.49;34.86
44313;BME280;38833;51.142;-0.974;2022-07-23T05:42:53;100411.44;;;26.24;34.90
44313;BME280;38833;51.142;-0.974;2022-07-23T05:45:27;100408.01;;;26.26;34.87
44313;BME280;38833;51.142;-0.974;2022-07-23T05:48:00;100409.75;;;26.30;34.80
44313;BME280;38833;51.142;-0.974;2022-07-23T05:50:33;100410.76;;;26.29;34.79
44313;BME280;38833;51.142;-0.974;2022-07-23T05:53:07;100413.17;;;26.27;34.81
44313;BME280;38833;51.142;-0.974;2022-07-23T05:55:40;100414.38;;;26.05;34.82
44313;BME280;38833;51.142;-0.974;2022-07-23T05:58:13;100414.19;;;26.34;34.77
44313;BME280;38833;51.142;-0.974;2022-07-23T06:00:46;100416.08;;;26.50;34.83
44313;BME280;38833;51.142;-0.974;2022-07-23T06:03:20;100419.01;;;26.52;34.79
44313;BME280;38833;51.142;-0.974;2022-07-23T06:05:53;100417.23;;;26.34;34.77
44313;BME280;38833;51.142;-0.974;2022-07-23T06:08:26;100415.76;;;26.32;34.82
44313;BME280;38833;51.142;-0.974;2022-07-23T06:11:00;100413.08;;;26.26;34.84
44313;BME280;38833;51.142;-0.974;2022-07-23T06:13:33;100414.82;;;26.25;34.88
44313;BME280;38833;51.142;-0.974;2022-07-23T06:16:06;100415.04;;;26.25;34.87
44313;BME280;38833;51.142;-0.974;2022-07-23T06:18:39;100422.69;;;26.21;34.97
44313;BME280;38833;51.142;-0.974;2022-07-23T06:21:13;100428.95;;;26.44;34.92
44313;BME280;38833;51.142;-0.974;2022-07-23T06:23:46;100423.89;;;26.16;35.00
44313;BME280;38833;51.142;-0.974;2022-07-23T06:26:19;100423.08;;;26.18;34.97
44313;BME280;38833;51.142;-0.974;2022-07-23T06:28:53;100424.10;;;26.41;34.97
44313;BME280;38833;51.142;-0.974;2022-07-23T06:31:26;100422.66;;;26.15;35.00
44313;BME280;38833;51.142;-0.974;2022-07-23T06:33:59;100426.52;;;25.91;35.03
44313;BME280;38833;51.142;-0.974;2022-07-23T06:36:32;100426.73;;;26.46;34.88
44313;BME280;38833;51.142;-0.974;2022-07-23T06:39:06;100421.57;;;26.19;34.92
44313;BME280;38833;51.142;-0.974;2022-07-23T06:41:39;100417.02;;;26.41;34.94
44313;BME280;38833;51.142;-0.974;2022-07-23T06:44:12;100412.13;;;26.18;34.95
44313;BME280;38833;51.142;-0.974;2022-07-23T06:46:45;100410.35;;;26.23;34.87
44313;BME280;38833;51.142;-0.974;2022-07-23T06:49:18;100408.30;;;25.98;34.88
44313;BME280;38833;51.142;-0.974;2022-07-23T06:51:52;100407.34;;;26.19;34.90
44313;BME280;38833;51.142;-0.974;2022-07-23T06:54:25;100408.43;;;26.00;34.85
44313;BME280;38833;51.142;-0.974;2022-07-23T06:56:58;100409.29;;;26.24;34.77
44313;BME280;38833;51.142;-0.974;2022-07-23T06:59:31;100417.30;;;26.05;34.77
44313;BME280;38833;51.142;-0.974;2022-07-23T07:02:04;100422.30;;;26.29;34.71
44313;BME280;38833;51.142;-0.974;2022-07-23T07:04:38;100423.89;;;26.34;34.63
44313;BME280;38833;51.142;-0.974;2022-07-23T07:07:11;100428.11;;;26.37;34.52
44313;BME280;38833;51.142;-0.974;2022-07-23T07:09:44;100432.54;;;26.32;34.61
44313;BME280;38833;51.142;-0.974;2022-07-23T07:12:17;100432.22;;;26.36;34.60
44313;BME280;38833;51.142;-0.974;2022-07-23T07:14:51;100434.34;;;26.38;34.54
44313;BME280;38833;51.142;-0.974;2022-07-23T07:17:24;100437.29;;;26.31;34.59
44313;BME280;38833;51.142;-0.974;2022-07-23T07:19:57;100439.78;;;26.35;34.55
44313;BME280;38833;51.142;-0.974;2022-07-23T07:22:30;100438.82;;;26.23;34.44
44313;BME280;38833;51.142;-0.974;2022-07-23T07:25:05;100436.87;;;26.46;34.43
44313;BME280;38833;51.142;-0.974;2022-07-23T07:27:38;100441.89;;;26.45;34.43
44313;BME280;38833;51.142;-0.974;2022-07-23T07:30:12;100447.59;;;26.44;34.41
44313;BME280;38833;51.142;-0.974;2022-07-23T07:32:45;100444.88;;;26.50;34.33
44313;BME280;38833;51.142;-0.974;2022-07-23T07:35:19;100445.05;;;26.51;34.30
44313;BME280;38833;51.142;-0.974;2022-07-23T07:37:52;100443.70;;;26.50;34.35
44313;BME280;38833;51.142;-0.974;2022-07-23T07:40:25;100439.84;;;26.50;34.33
44313;BME280;38833;51.142;-0.974;2022-07-23T07:42:59;100439.06;;;26.49;34.35
44313;BME280;38833;51.142;-0.974;2022-07-23T07:45:32;100438.73;;;26.73;34.33
44313;BME280;38833;51.142;-0.974;2022-07-23T07:48:05;100445.32;;;26.50;34.34
44313;BME280;38833;51.142;-0.974;2022-07-23T07:50:38;100452.87;;;26.66;34.41
44313;BME280;38833;51.142;-0.974;2022-07-23T07:53:12;100455.41;;;26.47;34.39
44313;BME280;38833;51.142;-0.974;2022-07-23T07:55:45;100452.80;;;26.26;34.39
44313;BME280;38833;51.142;-0.974;2022-07-23T07:58:18;100451.79;;;26.44;34.52
44313;BME280;38833;51.142;-0.974;2022-07-23T08:00:51;100449.31;;;26.41;34.52
44313;BME280;38833;51.142;-0.974;2022-07-23T08:03:25;100449.43;;;26.44;34.51
44313;BME280;38833;51.142;-0.974;2022-07-23T08:05:58;100448.32;;;26.41;34.52
44313;BME280;38833;51.142;-0.974;2022-07-23T08:08:32;100448.16;;;26.45;34.54
44313;BME280;38833;51.142;-0.974;2022-07-23T08:11:05;100449.19;;;26.41;34.20
44313;BME280;38833;51.142;-0.974;2022-07-23T08:13:38;100450.54;;;26.31;34.03
44313;BME280;38833;51.142;-0.974;2022-07-23T08:16:11;100446.46;;;26.97;33.45
44313;BME280;38833;51.142;-0.974;2022-07-23T08:18:45;100442.76;;;27.13;32.93
44313;BME280;38833;51.142;-0.974;2022-07-23T08:21:18;100442.34;;;27.55;32.13
44313;BME280;38833;51.142;-0.974;2022-07-23T08:23:51;100447.86;;;28.42;31.11
44313;BME280;38833;51.142;-0.974;2022-07-23T08:26:24;100445.70;;;29.24;29.89
44313;BME280;38833;51.142;-0.974;2022-07-23T08:28:58;100453.72;;;30.08;28.95
44313;BME280;38833;51.142;-0.974;2022-07-23T08:31:31;100452.61;;;29.92;29.21
44313;BME280;38833;51.142;-0.974;2022-07-23T08:34:04;100449.67;;;29.10;30.83
44313;BME280;38833;51.142;-0.974;2022-07-23T08:36:37;100449.55;;;28.19;32.00
44313;BME280;38833;51.142;-0.974;2022-07-23T08:39:11;100447.18;;;27.92;32.66
44313;BME280;38833;51.142;-0.974;2022-07-23T08:41:44;100449.14;;;27.38;33.09
44313;BME280;38833;51.142;-0.974;2022-07-23T08:44:17;100448.61;;;27.31;33.38
44313;BME280;38833;51.142;-0.974;2022-07-23T08:46:51;100439.80;;;27.36;33.42
44313;BME280;38833;51.142;-0.974;2022-07-23T08:49:24;100436.33;;;27.26;33.52
44313;BME280;38833;51.142;-0.974;2022-07-23T08:51:58;100439.50;;;27.50;33.53
44313;BME280;38833;51.142;-0.974;2022-07-23T08:54:31;100440.00;;;27.21;33.59
44313;BME280;38833;51.142;-0.974;2022-07-23T08:57:04;100451.22;;;27.17;33.69
44313;BME280;38833;51.142;-0.974;2022-07-23T08:59:38;100452.39;;;27.11;33.65
44313;BME280;38833;51.142;-0.974;2022-07-23T09:02:12;100455.19;;;27.06;33.85
44313;BME280;38833;51.142;-0.974;2022-07-23T09:04:45;100453.02;;;27.29;33.82
44313;BME280;38833;51.142;-0.974;2022-07-23T09:07:18;100453.60;;;27.28;34.18
44313;BME280;38833;51.142;-0.974;2022-07-23T09:10:08;100457.36;;;27.39;34.11
44313;BME280;38833;51.142;-0.974;2022-07-23T09:12:42;100458.16;;;26.92;33.84
44313;BME280;38833;51.142;-0.974;2022-07-23T09:15:15;100457.62;;;26.83;34.09
44313;BME280;38833;51.142;-0.974;2022-07-23T09:17:48;100461.08;;;26.93;34.08
44313;BME280;38833;51.142;-0.974;2022-07-23T09:20:22;100458.87;;;26.96;34.30
44313;BME280;38833;51.142;-0.974;2022-07-23T09:22:55;100458.95;;;27.26;34.30
44313;BME280;38833;51.142;-0.974;2022-07-23T09:25:28;100458.79;;;27.09;34.57
44313;BME280;38833;51.142;-0.974;2022-07-23T09:28:02;100457.63;;;27.07;34.46
44313;BME280;38833;51.142;-0.974;2022-07-23T09:30:35;100456.03;;;27.21;34.54
44313;BME280;38833;51.142;-0.974;2022-07-23T09:33:10;100457.54;;;27.56;34.46
44313;BME280;38833;51.142;-0.974;2022-07-23T09:35:46;100456.01;;;27.41;34.02
44313;BME280;38833;51.142;-0.974;2022-07-23T09:38:21;100458.24;;;27.40;34.37
44313;BME280;38833;51.142;-0.974;2022-07-23T09:41:11;100458.74;;;26.90;35.25
44313;BME280;38833;51.142;-0.974;2022-07-23T09:43:45;100457.83;;;27.08;34.86
44313;BME280;38833;51.142;-0.974;2022-07-23T09:46:20;100454.84;;;27.26;34.68
44313;BME280;38833;51.142;-0.974;2022-07-23T09:48:55;100452.67;;;27.45;34.63
44313;BME280;38833;51.142;-0.974;2022-07-23T09:51:28;100456.71;;;27.34;34.43
44313;BME280;38833;51.142;-0.974;2022-07-23T09:54:01;100457.81;;;27.18;34.31
44313;BME280;38833;51.142;-0.974;2022-07-23T09:56:36;100460.75;;;27.83;34.22
44313;BME280;38833;51.142;-0.974;2022-07-23T09:59:10;100458.72;;;27.81;34.22
44313;BME280;38833;51.142;-0.974;2022-07-23T10:01:44;100462.17;;;27.60;29.99
44313;BME280;38833;51.142;-0.974;2022-07-23T10:04:18;100455.39;;;27.40;28.46
44313;BME280;38833;51.142;-0.974;2022-07-23T10:06:55;100456.54;;;27.94;26.80
44313;BME280;38833;51.142;-0.974;2022-07-23T10:09:30;100455.44;;;27.83;26.91
44313;BME280;38833;51.142;-0.974;2022-07-23T10:12:09;100458.44;;;27.86;26.79
44313;BME280;38833;51.142;-0.974;2022-07-23T10:14:42;100462.26;;;27.63;26.18
44313;BME280;38833;51.142;-0.974;2022-07-23T10:17:16;100461.81;;;27.86;25.83
44313;BME280;38833;51.142;-0.974;2022-07-23T10:19:49;100462.95;;;27.78;26.02
44313;BME280;38833;51.142;-0.974;2022-07-23T10:22:24;100458.33;;;27.78;26.11
44313;BME280;38833;51.142;-0.974;2022-07-23T10:25:08;100456.55;;;27.65;26.49
44313;BME280;38833;51.142;-0.974;2022-07-23T10:27:51;100453.28;;;27.63;26.20
44313;BME280;38833;51.142;-0.974;2022-07-23T10:30:33;100453.13;;;27.84;26.51
44313;BME280;38833;51.142;-0.974;2022-07-23T10:33:20;100449.06;;;27.49;26.75
44313;BME280;38833;51.142;-0.974;2022-07-23T10:36:02;100446.99;;;27.40;26.46
44313;BME280;38833;51.142;-0.974;2022-07-23T10:38:42;100439.16;;;27.70;26.46
44313;BME280;38833;51.142;-0.974;2022-07-23T10:41:32;100445.19;;;27.68;26.55
44313;BME280;38833;51.142;-0.974;2022-07-23T10:44:07;100440.25;;;27.67;26.11
44313;BME280;38833;51.142;-0.974;2022-07-23T10:46:58;100434.64;;;27.76;26.43
44313;BME280;38833;51.142;-0.974;2022-07-23T10:49:33;100434.35;;;27.83;27.00
44313;BME280;38833;51.142;-0.974;2022-07-23T10:52:24;100433.76;;;27.99;26.33
44313;BME280;38833;51.142;-0.974;2022-07-23T10:55:40;100428.84;;;28.03;25.93
44313;BME280;38833;51.142;-0.974;2022-07-23T10:58:19;100432.00;;;27.94;26.52
44313;BME280;38833;51.142;-0.974;2022-07-23T11:00:52;100428.13;;;27.92;26.54
44313;BME280;38833;51.142;-0.974;2022-07-23T11:03:31;100420.47;;;27.77;26.87
44313;BME280;38833;51.142;-0.974;2022-07-23T11:06:05;100419.08;;;27.79;26.61
44313;BME280;38833;51.142;-0.974;2022-07-23T11:08:39;100428.28;;;27.71;26.83
44313;BME280;38833;51.142;-0.974;2022-07-23T11:11:12;100428.95;;;27.96;26.89
44313;BME280;38833;51.142;-0.974;2022-07-23T11:13:47;100428.18;;;28.19;27.10
44313;BME280;38833;51.142;-0.974;2022-07-23T11:16:23;100424.80;;;28.06;27.02
44313;BME280;38833;51.142;-0.974;2022-07-23T11:19:02;100423.59;;;27.87;27.21
44313;BME280;38833;51.142;-0.974;2022-07-23T11:21:52;100425.86;;;28.22;26.47
44313;BME280;38833;51.142;-0.974;2022-07-23T11:24:25;100425.84;;;28.17;26.32
44313;BME280;38833;51.142;-0.974;2022-07-23T11:27:01;100422.21;;;27.85;26.69
44313;BME280;38833;51.142;-0.974;2022-07-23T11:29:42;100425.45;;;28.19;27.04
44313;BME280;38833;51.142;-0.974;2022-07-23T11:32:28;100423.87;;;27.93;27.11
44313;BME280;38833;51.142;-0.974;2022-07-23T11:35:18;100422.01;;;28.30;26.46
44313;BME280;38833;51.142;-0.974;2022-07-23T11:37:52;100416.24;;;28.11;26.47
44313;BME280;38833;51.142;-0.974;2022-07-23T11:40:26;100417.81;;;28.11;26.60
44313;BME280;38833;51.142;-0.974;2022-07-23T11:43:01;100413.63;;;28.12;26.51
44313;BME280;38833;51.142;-0.974;2022-07-23T11:45:36;100416.75;;;28.28;26.72
44313;BME280;38833;51.142;-0.974;2022-07-23T11:48:16;100406.80;;;28.40;26.82
44313;BME280;38833;51.142;-0.974;2022-07-23T11:50:52;100404.47;;;28.47;26.78
44313;BME280;38833;51.142;-0.974;2022-07-23T11:53:27;100399.32;;;28.15;25.99
44313;BME280;38833;51.142;-0.974;2022-07-23T11:56:05;100392.39;;;28.00;26.70
44313;BME280;38833;51.142;-0.974;2022-07-23T11:58:39;100395.28;;;28.54;26.94
44313;BME280;38833;51.142;-0.974;2022-07-23T12:01:26;100400.74;;;28.27;27.16
44313;BME280;38833;51.142;-0.974;2022-07-23T12:04:00;100399.84;;;28.68;27.23
44313;BME280;38833;51.142;-0.974;2022-07-23T12:06:38;100403.74;;;28.73;27.33
44313;BME280;38833;51.142;-0.974;2022-07-23T12:09:11;100401.88;;;28.39;27.29
44313;BME280;38833;51.142;-0.974;2022-07-23T12:11:57;100402.53;;;28.73;26.76
44313;BME280;38833;51.142;-0.974;2022-07-23T12:14:30;100400.10;;;28.58;26.78
44313;BME280;38833;51.142;-0.974;2022-07-23T12:17:07;100402.88;;;28.79;27.12
44313;BME280;38833;51.142;-0.974;2022-07-23T12:19:41;100400.00;;;28.49;26.55
44313;BME280;38833;51.142;-0.974;2022-07-23T12:22:15;100402.61;;;28.52;26.82
44313;BME280;38833;51.142;-0.974;2022-07-23T12:24:57;100405.37;;;28.72;26.97
44313;BME280;38833;51.142;-0.974;2022-07-23T12:27:31;100405.47;;;28.85;27.32
44313;BME280;38833;51.142;-0.974;2022-07-23T12:30:22;100410.38;;;28.88;27.26
44313;BME280;38833;51.142;-0.974;2022-07-23T12:32:58;100416.17;;;28.62;27.20
44313;BME280;38833;51.142;-0.974;2022-07-23T12:35:34;100419.93;;;28.77;27.34
44313;BME280;38833;51.142;-0.974;2022-07-23T12:38:09;100415.05;;;28.64;27.39
44313;BME280;38833;51.142;-0.974;2022-07-23T12:40:45;100404.40;;;28.93;27.43
44313;BME280;38833;51.142;-0.974;2022-07-23T12:43:21;100398.16;;;28.98;27.43
44313;BME280;38833;51.142;-0.974;2022-07-23T12:45:56;100393.02;;;28.77;27.94
44313;BME280;38833;51.142;-0.974;2022-07-23T12:48:31;100383.26;;;28.73;28.02
44313;BME280;38833;51.142;-0.974;2022-07-23T12:51:06;100386.70;;;29.08;27.86
44313;BME280;38833;51.142;-0.974;2022-07-23T12:53:41;100389.55;;;28.93;27.55
44313;BME280;38833;51.142;-0.974;2022-07-23T12:56:16;100388.55;;;28.95;27.65
44313;BME280;38833;51.142;-0.974;2022-07-23T12:58:51;100389.78;;;28.91;27.48
44313;BME280;38833;51.142;-0.974;2022-07-23T13:01:27;100391.73;;;28.83;27.20
44313;BME280;38833;51.142;-0.974;2022-07-23T13:04:03;100386.88;;;28.64;27.63
44313;BME280;38833;51.142;-0.974;2022-07-23T13:06:38;100394.25;;;29.25;27.79
44313;BME280;38833;51.142;-0.974;2022-07-23T13:09:13;100401.32;;;29.00;27.74
44313;BME280;38833;51.142;-0.974;2022-07-23T13:11:47;100406.18;;;29.03;27.93
44313;BME280;38833;51.142;-0.974;2022-07-23T13:14:22;100403.37;;;29.09;28.22
44313;BME280;38833;51.142;-0.974;2022-07-23T13:16:56;100409.14;;;28.84;28.01
44313;BME280;38833;51.142;-0.974;2022-07-23T13:19:29;100403.96;;;29.29;28.41
44313;BME280;38833;51.142;-0.974;2022-07-23T13:22:03;100400.68;;;28.74;28.97